Oshawa, Canada
Current Conditions -  °F | °C
As of 5:00 AM on Saturday 22 Nov 2014 (Local Time) from CYOO Reporting Station
Overcast Overcast  
Wind Chill: 21°   Ceiling: 14000
Heat Index: 30°   Visibility: 9mi
Dew Point: 23°   Wind: 10mph
Humidity: 75%   Direction: 230°SW
Pressure: 30.22"   Gusts: 20mph
Location:  43.89°N, 78.86°W
Report Text: CYOO 221000Z AUTO 23009G17KT 9SM OVC140 M01/M05 A3022 RMK SLP239
Loading
Personal Weather Stations






























Interactive Weather Map New forecast layout! Learn more

10-Day Weather Forecast

Advertisements
Track Severe Weather on mobile